createdAt,value
2023-02-07T00:01:37.206Z,99.90
2023-02-07T00:04:05.775Z,99.90
2023-02-07T00:06:36.416Z,99.90
2023-02-07T00:09:08.873Z,99.90
2023-02-07T00:11:40.815Z,99.90
2023-02-07T00:14:12.670Z,99.90
2023-02-07T00:16:41.715Z,99.90
2023-02-07T00:19:10.501Z,99.90
2023-02-07T00:21:38.974Z,99.90
2023-02-07T00:24:07.799Z,99.90
2023-02-07T00:26:36.137Z,99.90
2023-02-07T00:29:05.069Z,99.90
2023-02-07T00:31:36.550Z,99.90
2023-02-07T00:34:07.317Z,99.90
2023-02-07T00:36:37.203Z,99.90
2023-02-07T00:39:07.673Z,99.90
2023-02-07T00:41:36.564Z,99.90
2023-02-07T00:44:05.565Z,99.90
2023-02-07T00:46:36.423Z,99.90
2023-02-07T00:49:05.488Z,99.90
2023-02-07T00:51:34.922Z,99.90
2023-02-07T00:54:03.566Z,99.90
2023-02-07T00:56:32.902Z,99.90
2023-02-07T00:59:01.678Z,99.90
2023-02-07T01:01:30.220Z,99.90
2023-02-07T01:04:00.171Z,99.90
2023-02-07T01:06:29.707Z,99.90
2023-02-07T01:08:59.340Z,99.90
2023-02-07T01:11:28.678Z,99.90
2023-02-07T01:13:57.000Z,99.90
2023-02-07T01:16:28.357Z,99.90
2023-02-07T01:18:56.875Z,99.90
2023-02-07T01:21:28.174Z,99.90
2023-02-07T01:23:57.387Z,99.90
2023-02-07T01:26:26.275Z,99.90
2023-02-07T01:28:55.136Z,99.90
2023-02-07T01:31:24.362Z,99.90
2023-02-07T01:33:56.058Z,99.90
2023-02-07T01:36:26.718Z,99.90
2023-02-07T01:38:56.053Z,99.90
2023-02-07T01:41:26.075Z,99.90
2023-02-07T01:44:00.461Z,99.90
2023-02-07T01:46:30.148Z,99.90
2023-02-07T01:49:01.210Z,99.90
2023-02-07T01:51:33.299Z,99.90
2023-02-07T01:54:05.341Z,99.90
2023-02-07T01:56:34.831Z,99.90
2023-02-07T01:59:05.745Z,99.90
2023-02-07T02:01:34.955Z,99.90
2023-02-07T02:04:03.320Z,99.90
2023-02-07T02:06:34.901Z,99.90
2023-02-07T02:09:08.958Z,99.90
2023-02-07T02:11:51.177Z,99.90
2023-02-07T02:14:31.615Z,99.90
2023-02-07T02:17:08.320Z,99.90
2023-02-07T02:20:10.277Z,99.90
2023-02-07T02:23:08.771Z,99.90
2023-02-07T02:26:10.607Z,99.90
2023-02-07T02:29:19.553Z,99.90
2023-02-07T02:32:22.863Z,99.90
2023-02-07T02:34:58.194Z,99.90
2023-02-07T02:37:37.381Z,99.90
2023-02-07T02:40:10.401Z,99.90
2023-02-07T02:42:43.682Z,99.90
2023-02-07T02:45:17.041Z,99.90
2023-02-07T02:47:47.879Z,99.90
2023-02-07T02:50:23.619Z,99.90
2023-02-07T02:52:51.866Z,99.90
2023-02-07T02:55:30.389Z,99.90
2023-02-07T02:58:04.449Z,99.90
2023-02-07T03:00:56.755Z,99.90
2023-02-07T03:03:59.137Z,99.90
2023-02-07T03:06:52.840Z,99.90
2023-02-07T03:09:35.086Z,99.90
2023-02-07T03:12:25.439Z,99.90
2023-02-07T03:15:00.526Z,99.90
2023-02-07T03:17:34.121Z,99.90
2023-02-07T03:20:09.363Z,99.90
2023-02-07T03:22:39.863Z,99.90
2023-02-07T03:25:10.657Z,99.90
2023-02-07T03:27:40.284Z,99.90
2023-02-07T03:30:11.621Z,99.90
2023-02-07T03:32:42.778Z,99.90
2023-02-07T03:35:15.599Z,99.90
2023-02-07T03:37:50.982Z,99.90
2023-02-07T03:40:20.111Z,99.90
2023-02-07T03:42:52.518Z,99.90
2023-02-07T03:45:22.387Z,99.90
2023-02-07T03:47:51.253Z,99.90
2023-02-07T03:50:19.718Z,99.90
2023-02-07T03:52:49.466Z,99.90
2023-02-07T03:55:17.863Z,99.90
2023-02-07T03:57:46.105Z,99.90
2023-02-07T04:00:15.828Z,99.90
2023-02-07T04:02:44.149Z,99.90
2023-02-07T04:05:12.687Z,99.90
2023-02-07T04:07:41.832Z,99.90
2023-02-07T04:10:12.704Z,99.90
2023-02-07T04:12:40.929Z,99.90
2023-02-07T04:15:10.565Z,99.90
2023-02-07T04:17:39.210Z,99.90
2023-02-07T04:20:08.695Z,99.90
2023-02-07T04:22:36.987Z,99.90
2023-02-07T04:25:05.495Z,99.90
2023-02-07T04:27:35.180Z,99.90
2023-02-07T04:30:03.447Z,99.90
2023-02-07T04:32:31.730Z,99.90
2023-02-07T04:35:00.255Z,99.90
2023-02-07T04:37:28.611Z,99.90
2023-02-07T04:39:56.897Z,99.90
2023-02-07T04:42:25.145Z,99.90
2023-02-07T04:44:54.761Z,99.90
2023-02-07T04:47:23.166Z,99.90
2023-02-07T04:49:51.344Z,99.90
2023-02-07T04:52:19.626Z,99.90
2023-02-07T04:54:47.792Z,99.90
2023-02-07T04:57:17.065Z,99.90
2023-02-07T04:59:45.342Z,99.90
2023-02-07T05:02:15.125Z,99.90
2023-02-07T05:04:43.372Z,99.90
2023-02-07T05:07:11.623Z,99.90
2023-02-07T05:09:39.894Z,99.90
2023-02-07T05:12:08.693Z,99.90
2023-02-07T05:14:37.119Z,99.90
2023-02-07T05:17:05.429Z,99.90
2023-02-07T05:19:35.171Z,99.90
2023-02-07T05:22:03.424Z,99.90
2023-02-07T05:24:31.690Z,99.90
2023-02-07T05:26:59.923Z,99.90
2023-02-07T05:29:28.290Z,99.90
2023-02-07T05:32:14.094Z,99.90
2023-02-07T05:34:43.925Z,99.90
2023-02-07T05:37:12.170Z,99.90
2023-02-07T05:39:40.367Z,99.90
2023-02-07T05:42:08.714Z,99.90
2023-02-07T05:44:36.981Z,99.90
2023-02-07T05:47:05.374Z,99.90
2023-02-07T05:49:33.754Z,99.90
2023-02-07T05:52:03.499Z,99.90
2023-02-07T05:54:31.914Z,99.90
2023-02-07T05:57:00.096Z,99.90
2023-02-07T05:59:28.403Z,99.90
2023-02-07T06:01:56.634Z,99.90
2023-02-07T06:04:24.868Z,99.90
2023-02-07T06:06:53.157Z,99.90
2023-02-07T06:09:22.981Z,99.90
2023-02-07T06:11:51.227Z,99.90
2023-02-07T06:14:19.614Z,99.90
2023-02-07T06:16:47.933Z,99.90
2023-02-07T06:19:16.429Z,99.90
2023-02-07T06:21:46.734Z,99.90
2023-02-07T06:24:15.500Z,99.90
2023-02-07T06:26:46.947Z,99.90
2023-02-07T06:29:15.501Z,99.90
2023-02-07T06:31:43.746Z,99.90
2023-02-07T06:34:12.182Z,99.90
2023-02-07T06:36:40.548Z,99.90
2023-02-07T06:39:09.472Z,99.90
2023-02-07T06:41:37.701Z,99.90
2023-02-07T06:44:07.570Z,99.90
2023-02-07T06:46:36.002Z,99.90
2023-02-07T06:49:04.623Z,99.90
2023-02-07T06:51:32.957Z,99.90
2023-02-07T06:54:03.411Z,99.90
2023-02-07T06:56:31.863Z,99.90
2023-02-07T06:59:00.125Z,99.90
2023-02-07T07:01:29.969Z,99.90
2023-02-07T07:03:58.271Z,99.90
2023-02-07T07:06:26.922Z,99.90
2023-02-07T07:08:55.211Z,99.90
2023-02-07T07:11:23.749Z,99.90
2023-02-07T07:13:51.881Z,99.90
2023-02-07T07:16:20.810Z,99.90
2023-02-07T07:18:50.484Z,99.90
2023-02-07T07:21:18.794Z,99.90
2023-02-07T07:23:47.444Z,99.90
2023-02-07T07:26:15.723Z,99.90
2023-02-07T07:28:44.208Z,99.90
2023-02-07T07:31:12.877Z,99.90
2023-02-07T07:33:41.320Z,99.90
2023-02-07T07:36:11.223Z,99.90
2023-02-07T07:38:39.824Z,99.90
2023-02-07T07:41:08.276Z,99.90
2023-02-07T07:43:36.561Z,99.90
2023-02-07T07:46:04.855Z,99.90
2023-02-07T07:48:33.244Z,99.90
2023-02-07T07:51:01.623Z,99.90
2023-02-07T07:53:31.324Z,99.90
2023-02-07T07:55:59.569Z,99.90
2023-02-07T07:58:28.889Z,99.90
2023-02-07T08:00:57.258Z,99.90
2023-02-07T08:03:26.971Z,99.90
2023-02-07T08:05:55.242Z,99.90
2023-02-07T08:08:23.536Z,99.90
2023-02-07T08:10:53.204Z,99.90
2023-02-07T08:13:21.959Z,99.90
2023-02-07T08:15:50.173Z,99.90
2023-02-07T08:18:18.414Z,99.90
2023-02-07T08:20:46.573Z,99.90
2023-02-07T08:23:14.842Z,99.90
2023-02-07T08:25:43.389Z,99.90
2023-02-07T08:28:13.172Z,99.90
2023-02-07T08:30:41.872Z,99.90
2023-02-07T08:33:11.046Z,99.90
2023-02-07T08:35:39.284Z,99.90
2023-02-07T08:38:07.676Z,99.90
2023-02-07T08:40:36.607Z,99.90
2023-02-07T08:43:07.435Z,99.90
2023-02-07T08:45:37.200Z,99.90
2023-02-07T08:48:05.652Z,99.90
2023-02-07T08:50:34.005Z,99.90
2023-02-07T08:53:02.450Z,99.90
2023-02-07T08:55:30.734Z,99.90
2023-02-07T08:57:58.993Z,99.90
2023-02-07T09:00:27.306Z,99.90
2023-02-07T09:02:57.062Z,99.90
2023-02-07T09:05:25.523Z,99.90
2023-02-07T09:07:53.845Z,99.90
2023-02-07T09:10:22.206Z,99.90
2023-02-07T09:12:50.334Z,99.90
2023-02-07T09:15:18.811Z,99.90
2023-02-07T09:17:47.314Z,99.90
2023-02-07T09:20:17.199Z,99.90
2023-02-07T09:23:11.313Z,99.90
2023-02-07T09:25:41.894Z,99.90
2023-02-07T09:28:10.388Z,99.90
2023-02-07T09:30:38.737Z,99.90
2023-02-07T09:33:07.347Z,99.90
2023-02-07T09:35:39.973Z,99.90
2023-02-07T09:38:09.146Z,99.90
2023-02-07T09:40:37.782Z,99.90
2023-02-07T09:43:16.266Z,99.90
2023-02-07T09:45:49.199Z,99.90
2023-02-07T09:48:22.668Z,99.90
2023-02-07T09:50:54.815Z,99.90
2023-02-07T09:53:26.797Z,99.90
2023-02-07T09:55:59.223Z,99.90
2023-02-07T09:58:36.665Z,99.90
2023-02-07T10:01:09.730Z,99.90
2023-02-07T10:03:44.065Z,99.90
2023-02-07T10:06:22.458Z,99.90
2023-02-07T10:08:55.341Z,99.90
2023-02-07T10:11:36.323Z,99.90
2023-02-07T10:14:28.174Z,99.90
2023-02-07T10:17:25.786Z,99.90
2023-02-07T10:20:07.587Z,99.90
2023-02-07T10:22:45.098Z,99.90
2023-02-07T10:25:24.695Z,99.90
2023-02-07T10:28:04.647Z,99.90
2023-02-07T10:30:36.830Z,99.90
2023-02-07T10:33:13.627Z,99.90
2023-02-07T10:35:42.197Z,99.90
2023-02-07T10:38:22.771Z,99.90
2023-02-07T10:40:56.926Z,99.90
2023-02-07T10:43:30.025Z,99.90
2023-02-07T10:46:06.143Z,99.90
2023-02-07T10:48:35.830Z,99.90
2023-02-07T10:51:06.484Z,99.90
2023-02-07T10:53:54.660Z,98.10
2023-02-07T10:56:27.246Z,98.60
2023-02-07T10:58:58.279Z,98.30
2023-02-07T11:01:29.836Z,97.50
2023-02-07T11:03:58.732Z,96.90
2023-02-07T11:06:28.627Z,95.50
2023-02-07T11:09:14.441Z,94.10
2023-02-07T11:11:44.223Z,92.80
2023-02-07T11:14:20.088Z,92.00
2023-02-07T11:16:51.987Z,91.90
2023-02-07T11:19:22.905Z,91.90
2023-02-07T11:21:53.737Z,91.40
2023-02-07T11:24:29.170Z,92.40
2023-02-07T11:27:03.520Z,92.80
2023-02-07T11:29:36.279Z,92.80
2023-02-07T11:32:05.710Z,93.70
2023-02-07T11:34:49.361Z,92.90
2023-02-07T11:37:35.959Z,92.80
2023-02-07T11:40:58.352Z,93.10
2023-02-07T11:43:28.344Z,93.60
2023-02-07T11:46:11.215Z,93.60
2023-02-07T11:48:43.784Z,91.80
2023-02-07T11:51:22.157Z,92.20
2023-02-07T11:53:56.261Z,92.10
2023-02-07T11:56:26.973Z,90.90
2023-02-07T11:58:58.312Z,91.00
2023-02-07T12:01:34.624Z,90.50
2023-02-07T12:04:12.142Z,88.90
2023-02-07T12:06:54.990Z,90.20
2023-02-07T12:09:32.327Z,90.30
2023-02-07T12:12:08.918Z,90.60
2023-02-07T12:14:45.271Z,90.90
2023-02-07T12:17:21.561Z,91.40
2023-02-07T12:20:02.889Z,90.10
2023-02-07T12:22:44.318Z,90.80
2023-02-07T12:25:19.195Z,89.80
2023-02-07T12:27:51.417Z,89.20
2023-02-07T12:30:32.188Z,90.50
2023-02-07T12:33:17.418Z,90.80
2023-02-07T12:35:57.626Z,90.90
2023-02-07T12:38:31.715Z,90.60
2023-02-07T12:41:12.700Z,90.80
2023-02-07T12:43:47.786Z,91.30
2023-02-07T12:46:29.190Z,91.00
2023-02-07T12:49:20.770Z,90.50
2023-02-07T12:52:06.955Z,90.60
2023-02-07T12:54:45.643Z,91.10
2023-02-07T12:57:22.345Z,90.30
2023-02-07T13:00:03.962Z,90.70
2023-02-07T13:02:52.698Z,89.60
2023-02-07T13:05:39.010Z,88.40
2023-02-07T13:08:20.098Z,87.60
2023-02-07T13:10:56.409Z,87.80
2023-02-07T13:13:30.343Z,86.50
2023-02-07T13:16:04.613Z,86.80
2023-02-07T13:18:43.235Z,86.30
2023-02-07T13:21:25.486Z,85.90
2023-02-07T13:23:57.967Z,87.20
2023-02-07T13:26:28.066Z,86.90
2023-02-07T13:28:58.811Z,83.80
2023-02-07T13:31:40.990Z,85.20
2023-02-07T13:34:21.515Z,84.30
2023-02-07T13:36:53.207Z,85.70
2023-02-07T13:39:38.695Z,84.50
2023-02-07T13:42:21.154Z,86.60
2023-02-07T13:44:59.897Z,86.70
2023-02-07T13:47:45.055Z,87.40
2023-02-07T13:50:25.482Z,87.50
2023-02-07T13:53:01.231Z,89.30
2023-02-07T13:55:34.917Z,90.50
2023-02-07T13:58:20.410Z,90.70
2023-02-07T14:01:10.445Z,90.60
2023-02-07T14:03:38.817Z,90.80
2023-02-07T14:06:24.761Z,91.70
2023-02-07T14:09:03.841Z,91.20
2023-02-07T14:11:37.974Z,91.70
2023-02-07T14:14:13.026Z,92.10
2023-02-07T14:16:57.380Z,92.60
2023-02-07T14:19:54.854Z,92.80
2023-02-07T14:22:27.285Z,93.30
2023-02-07T14:25:21.140Z,93.60
2023-02-07T14:28:22.316Z,94.20
2023-02-07T14:31:14.644Z,93.60
2023-02-07T14:33:43.092Z,94.70
2023-02-07T14:36:25.389Z,95.70
2023-02-07T14:39:31.912Z,95.70
2023-02-07T14:42:13.754Z,96.40
2023-02-07T14:44:44.522Z,97.30
2023-02-07T14:47:29.188Z,97.10
2023-02-07T14:49:59.720Z,97.60
2023-02-07T14:52:31.562Z,98.10
2023-02-07T14:55:05.400Z,98.30
2023-02-07T14:57:47.513Z,99.90
2023-02-07T15:00:31.347Z,99.90
2023-02-07T15:03:03.056Z,99.90
2023-02-07T15:05:34.248Z,99.90
2023-02-07T15:08:17.598Z,99.90
2023-02-07T15:10:54.798Z,99.90
2023-02-07T15:13:31.001Z,99.90
2023-02-07T15:16:02.037Z,99.90
2023-02-07T15:18:33.820Z,99.90
2023-02-07T15:21:03.001Z,99.90
2023-02-07T15:23:32.820Z,99.90
2023-02-07T15:26:09.915Z,99.90
2023-02-07T15:28:38.346Z,99.90
2023-02-07T15:31:12.926Z,99.90
2023-02-07T15:33:50.513Z,99.90
2023-02-07T15:36:34.555Z,99.90
2023-02-07T15:39:04.493Z,99.90
2023-02-07T15:41:34.873Z,99.90
2023-02-07T15:44:05.269Z,99.90
2023-02-07T15:46:48.133Z,99.90
2023-02-07T15:49:41.632Z,99.90
2023-02-07T15:52:16.607Z,99.90
2023-02-07T15:54:47.950Z,99.90
2023-02-07T15:57:23.953Z,99.90
2023-02-07T15:59:53.902Z,99.90
2023-02-07T16:02:27.348Z,99.90
2023-02-07T16:04:57.513Z,99.90
2023-02-07T16:07:26.500Z,99.90
2023-02-07T16:09:59.070Z,99.90
2023-02-07T16:12:49.938Z,99.90
2023-02-07T16:15:30.288Z,99.90
2023-02-07T16:17:58.549Z,99.90
2023-02-07T16:20:28.126Z,99.90
2023-02-07T16:22:59.151Z,99.90
2023-02-07T16:25:32.302Z,99.90
2023-02-07T16:28:03.156Z,99.90
2023-02-07T16:30:33.851Z,99.90
2023-02-07T16:33:06.111Z,99.90
2023-02-07T16:35:34.292Z,99.90
2023-02-07T16:38:02.547Z,99.90
2023-02-07T16:40:30.959Z,99.90
2023-02-07T16:42:59.475Z,99.90
2023-02-07T16:45:40.094Z,99.90
2023-02-07T16:48:16.041Z,99.90
2023-02-07T16:50:44.555Z,99.90
2023-02-07T16:53:12.889Z,99.90
2023-02-07T16:55:43.906Z,99.90
2023-02-07T16:58:22.362Z,99.90
2023-02-07T17:00:52.237Z,99.90
2023-02-07T17:03:20.835Z,99.90
2023-02-07T17:05:49.515Z,99.90
2023-02-07T17:08:20.889Z,99.90
2023-02-07T17:10:53.593Z,99.90
2023-02-07T17:13:22.197Z,99.90
2023-02-07T17:15:54.749Z,99.90
2023-02-07T17:18:23.327Z,99.90
2023-02-07T17:20:52.388Z,99.90
2023-02-07T17:23:21.462Z,99.90
2023-02-07T17:25:49.716Z,99.90
2023-02-07T17:28:18.245Z,99.90
2023-02-07T17:30:46.661Z,99.90
2023-02-07T17:33:17.240Z,99.90
2023-02-07T17:35:45.607Z,99.90
2023-02-07T17:38:13.739Z,99.90
2023-02-07T17:40:42.559Z,99.90
2023-02-07T17:43:10.849Z,99.90
2023-02-07T17:45:40.061Z,99.90
2023-02-07T17:48:08.387Z,99.90
2023-02-07T17:50:41.331Z,99.90
2023-02-07T17:53:11.522Z,99.90
2023-02-07T17:55:40.132Z,99.90
2023-02-07T17:58:08.599Z,99.90
2023-02-07T18:00:39.214Z,99.90
2023-02-07T18:03:08.889Z,99.90
2023-02-07T18:05:43.033Z,99.90
2023-02-07T18:08:14.292Z,99.90
2023-02-07T18:10:42.593Z,99.90
2023-02-07T18:13:11.024Z,99.90
2023-02-07T18:15:39.284Z,99.90
2023-02-07T18:18:07.581Z,99.90
2023-02-07T18:20:36.244Z,99.90
2023-02-07T18:23:05.929Z,99.90
2023-02-07T18:25:34.722Z,99.90
2023-02-07T18:28:03.036Z,99.90
2023-02-07T18:30:31.724Z,99.90
2023-02-07T18:33:00.341Z,99.90
2023-02-07T18:35:28.632Z,99.90
2023-02-07T18:37:56.981Z,99.90
2023-02-07T18:40:26.710Z,99.90
2023-02-07T18:43:02.976Z,99.90
2023-02-07T18:45:31.257Z,99.90
2023-02-07T18:47:59.627Z,99.90
2023-02-07T18:50:27.912Z,99.90
2023-02-07T18:52:56.134Z,99.90
2023-02-07T18:55:24.362Z,99.90
2023-02-07T18:57:56.381Z,99.90
2023-02-07T19:00:24.758Z,99.90
2023-02-07T19:02:52.986Z,99.90
2023-02-07T19:05:21.622Z,99.90
2023-02-07T19:07:49.852Z,99.90
2023-02-07T19:10:18.675Z,99.90
2023-02-07T19:12:47.036Z,99.90
2023-02-07T19:15:16.754Z,99.90
2023-02-07T19:17:45.029Z,99.90
2023-02-07T19:20:13.426Z,99.90
2023-02-07T19:22:41.793Z,99.90
2023-02-07T19:25:10.264Z,99.90
2023-02-07T19:27:38.540Z,99.90
2023-02-07T19:30:08.328Z,99.90
2023-02-07T19:32:38.071Z,99.90
2023-02-07T19:35:06.914Z,99.90
2023-02-07T19:37:35.129Z,99.90
2023-02-07T19:40:03.349Z,99.90
2023-02-07T19:42:31.782Z,99.90
2023-02-07T19:44:59.962Z,99.90
2023-02-07T19:47:28.569Z,99.90
2023-02-07T19:49:58.358Z,99.90
2023-02-07T19:52:29.480Z,99.90
2023-02-07T19:55:00.127Z,99.90
2023-02-07T19:57:28.557Z,99.90
2023-02-07T19:59:57.000Z,99.90
2023-02-07T20:02:27.584Z,99.90
2023-02-07T20:04:57.431Z,99.90
2023-02-07T20:07:25.652Z,99.90
2023-02-07T20:09:54.150Z,99.90
2023-02-07T20:12:22.605Z,99.90
2023-02-07T20:14:51.499Z,99.90
2023-02-07T20:17:19.966Z,99.90
2023-02-07T20:19:48.247Z,99.90
2023-02-07T20:22:18.108Z,99.90
2023-02-07T20:24:47.506Z,99.90
2023-02-07T20:27:15.790Z,99.90
2023-02-07T20:29:44.043Z,99.90
2023-02-07T20:32:14.168Z,99.90
2023-02-07T20:34:42.406Z,99.90
2023-02-07T20:37:17.324Z,99.90
2023-02-07T20:39:47.071Z,99.90
2023-02-07T20:42:15.364Z,99.90
2023-02-07T20:44:43.601Z,99.90
2023-02-07T20:47:15.206Z,99.90
2023-02-07T20:49:47.145Z,99.90
2023-02-07T20:52:17.801Z,99.90
2023-02-07T20:54:48.019Z,99.90
2023-02-07T20:57:16.319Z,99.90
2023-02-07T20:59:44.690Z,99.90
2023-02-07T21:02:12.982Z,99.90
2023-02-07T21:04:41.217Z,99.90
2023-02-07T21:07:09.711Z,99.90
2023-02-07T21:09:38.357Z,99.90
2023-02-07T21:12:08.837Z,99.90
2023-02-07T21:14:37.227Z,99.90
2023-02-07T21:17:07.575Z,99.90
2023-02-07T21:19:37.202Z,99.90
2023-02-07T21:22:07.425Z,99.90
2023-02-07T21:24:38.134Z,99.90
2023-02-07T21:27:08.134Z,99.90
2023-02-07T21:29:38.515Z,99.90
2023-02-07T21:32:06.907Z,99.90
2023-02-07T21:34:35.379Z,99.90
2023-02-07T21:37:03.577Z,99.90
2023-02-07T21:39:31.782Z,99.90
2023-02-07T21:42:00.085Z,99.90
2023-02-07T21:44:29.765Z,99.90
2023-02-07T21:46:58.048Z,99.90
2023-02-07T21:49:26.367Z,99.90
2023-02-07T21:51:54.911Z,99.90
2023-02-07T21:54:23.550Z,99.90
2023-02-07T21:56:52.373Z,99.90
2023-02-07T21:59:22.583Z,99.90
2023-02-07T22:01:52.689Z,99.90
2023-02-07T22:04:29.586Z,99.90
2023-02-07T22:06:57.889Z,99.90
2023-02-07T22:09:26.160Z,99.90
2023-02-07T22:11:58.580Z,99.90
2023-02-07T22:14:29.984Z,99.90
2023-02-07T22:16:59.841Z,99.90
2023-02-07T22:19:28.104Z,99.90
2023-02-07T22:21:56.759Z,99.90
2023-02-07T22:24:25.135Z,99.90
2023-02-07T22:26:53.362Z,99.90
2023-02-07T22:29:21.481Z,99.90
2023-02-07T22:31:49.934Z,99.90
2023-02-07T22:34:20.145Z,99.90
2023-02-07T22:36:48.471Z,99.90
2023-02-07T22:39:19.022Z,99.90
2023-02-07T22:41:47.733Z,99.90
2023-02-07T22:44:16.445Z,99.90
2023-02-07T22:46:44.939Z,99.90
2023-02-07T22:49:13.225Z,99.90
2023-02-07T22:51:43.069Z,99.90
2023-02-07T22:54:18.179Z,99.90
2023-02-07T22:56:47.137Z,99.90
2023-02-07T22:59:15.563Z,99.90
2023-02-07T23:01:44.538Z,99.90
2023-02-07T23:04:17.593Z,99.90
2023-02-07T23:06:48.532Z,99.90
2023-02-07T23:09:17.280Z,99.90
2023-02-07T23:11:46.640Z,99.90
2023-02-07T23:14:18.485Z,99.90
2023-02-07T23:16:52.566Z,99.90
2023-02-07T23:19:20.749Z,99.90
2023-02-07T23:21:50.462Z,99.90
2023-02-07T23:24:18.819Z,99.90
2023-02-07T23:26:47.198Z,99.90
2023-02-07T23:29:15.394Z,99.90
2023-02-07T23:31:43.562Z,99.90
2023-02-07T23:34:12.025Z,99.90
2023-02-07T23:36:41.009Z,99.90
2023-02-07T23:39:12.011Z,99.90
2023-02-07T23:41:41.260Z,99.90
2023-02-07T23:44:09.666Z,99.90
2023-02-07T23:46:38.080Z,99.90
2023-02-07T23:49:06.906Z,99.90
2023-02-07T23:51:35.549Z,99.90
2023-02-07T23:54:04.022Z,99.90
2023-02-07T23:56:34.200Z,99.90
2023-02-07T23:59:02.676Z,99.90
